Baku, Azerbaijan

3:42 PM AZST on October 02, 2014 (GMT +0500)
Bina | Change Station
CLOSE
Current Station
Airport
Location: Baku,
Elevation: 0 ft
Nearby Weather Stations

Elev 0 ft 40.45 °N, 50.07 °E | Updated 12 minutes ago

Overcast
Overcast
63 °F
Feels Like 63 °F
N
22
Wind Variable Wind from NNW

Today
High -- | Low -- °F
--% Chance of Precip.
Yesterday
High -- | Low -- °F
Precip. -- in
7:36 AM 7:20 PM
First Quarter, 57% visible
Pressure 30.27 in
Visibility 6.2 miles
Clouds Few 3400 ft
Overcast 3400 ft
Dew Point 54 °F
Humidity 72%
Rainfall 0.00 in
Snow Depth Not available.
UV 1 out of 12
Pollen Not available.
Air Quality Not available.
Flu Activity Not available.
METAR UBBB 021030Z 34019KT 9999 FEW034CB OVC034 17/12 Q1025 88CLRD70 NOSIG

More Conditions Fewer Conditions

Pressure 30.27 in
Visibility 6.2 miles
Clouds Few 3400 ft
Overcast 3400 ft
Dew Point 54 °F
Humidity 72%
Rainfall 0.00 in
Snow Depth Not available.
UV 1 out of 12
Pollen Not available.
Air Quality Not available.
Flu Activity Not available.
METAR UBBB 021030Z 34019KT 9999 FEW034CB OVC034 17/12 Q1025 88CLRD70 NOSIG

More Conditions Fewer Conditions

10-Day Weather Forecast

Almanac

Astronomy

Oct. 02, 2014 Rise Set
Actual Time 7:36 AM AZST 7:20 PM AZST
Civil Twilight 7:09 AM AZST 7:47 PM AZST
Nautical Twilight 6:37 AM AZST 8:19 PM AZST
Astronomical Twilight 6:06 AM AZST 8:51 PM AZST
Moon 3:08 PM AZST 12:28 AM AZST
Length of Visible Light 12h 38m
Length of Day
11h 44m
Tomorrow will be 2m 38s shorter.
First Quarter, 57% of the Moon is Illuminated
Today
First Quarter
Oct 8
Full
Oct 15
Last Quarter
Oct 23
New
Oct 30
First Quarter

Yesterday's Extremes

Country Highs Country Lows

Community

WunderPhotos

Upload Photos

1,758,210 photos uploaded!

WunderBlogs® & News

Nearby

Snow Depth

Not available.

Earthquake Activity

City Distance Mag. Time & Date
No recent earthquake activity has been reported nearby.
Minimum magnitude displayed is 2.5.

Coastal Water Temperatures

Place Temperature
No Stations Reporting

Nearby Weather Stations